Time;durP1;ratioP1;P1;durP2;ratioP2;P2;SDS_P1;SDS_P2;PMS_P1;PMS_P2;Temp;Humidity;BMP_temperature;BMP_pressure;BME280_temperature;BME280_humidity;BME280_pressure;Samples;Min_cycle;Max_cycle;Signal;HPM_P1;HPM_P2
2023/01/08 00:01:16;;;;;;;1.75;1.65;;;;;;;-21.84;80.00;100675.25;4983094;28;20137;-89
2023/01/08 00:03:43;;;;;;;1.50;1.40;;;;;;;-21.85;79.91;100679.50;4985396;28;20050;-88
2023/01/08 00:06:14;;;;;;;1.80;1.70;;;;;;;-21.89;79.94;100685.50;4987898;28;20073;-87
2023/01/08 00:08:41;;;;;;;1.65;1.55;;;;;;;-21.91;80.06;100671.84;4995357;28;20053;-87
2023/01/08 00:11:09;;;;;;;1.65;1.55;;;;;;;-21.97;80.00;100671.81;4977435;28;20046;-86
2023/01/08 00:13:36;;;;;;;1.75;1.65;;;;;;;-21.96;80.27;100679.50;4994396;28;20528;-86
2023/01/08 00:16:05;;;;;;;1.67;1.58;;;;;;;-22.17;79.92;100671.84;4992894;28;20054;-84
2023/01/08 00:18:32;;;;;;;1.50;1.40;;;;;;;-22.40;80.22;100670.16;4992612;28;20057;-85
2023/01/08 00:21:00;;;;;;;1.60;1.50;;;;;;;-22.47;80.55;100670.97;4975008;28;20046;-85
2023/01/08 00:23:27;;;;;;;1.70;1.60;;;;;;;-22.31;80.78;100670.13;4959152;28;20060;-85
2023/01/08 00:25:54;;;;;;;1.80;1.70;;;;;;;-22.15;80.78;100671.00;4974684;28;20062;-86
2023/01/08 00:28:21;;;;;;;1.60;1.50;;;;;;;-22.08;80.59;100671.81;4993066;28;20069;-85
2023/01/08 00:30:48;;;;;;;1.70;1.60;;;;;;;-22.06;80.58;100671.84;4974529;28;20528;-86
2023/01/08 00:33:16;;;;;;;1.80;1.70;;;;;;;-22.15;80.26;100665.00;4980465;28;20113;-85
2023/01/08 00:35:43;;;;;;;1.77;1.67;;;;;;;-22.23;80.15;100679.53;4945554;28;20074;-86
2023/01/08 00:38:10;;;;;;;1.60;1.50;;;;;;;-22.47;79.85;100678.66;4974898;28;20145;-86
2023/01/08 00:40:39;;;;;;;1.50;1.40;;;;;;;-22.63;80.02;100684.56;4991413;28;20054;-86
2023/01/08 00:43:06;;;;;;;1.80;1.70;;;;;;;-22.79;79.93;100678.56;4975332;28;20513;-87
2023/01/08 00:45:33;;;;;;;1.95;1.85;;;;;;;-22.89;79.94;100687.91;4975693;28;20050;-87
2023/01/08 00:48:00;;;;;;;1.77;1.67;;;;;;;-23.03;79.89;100690.47;4992179;28;20054;-87
2023/01/08 00:50:27;;;;;;;1.88;1.77;;;;;;;-23.07;79.77;100682.78;4992308;28;20054;-87
2023/01/08 00:52:54;;;;;;;1.80;1.70;;;;;;;-23.14;79.69;100681.03;4991945;28;20201;-87
2023/01/08 00:55:22;;;;;;;1.70;1.60;;;;;;;-23.12;80.02;100685.31;4992544;28;20069;-86
2023/01/08 00:57:49;;;;;;;1.70;1.60;;;;;;;-23.04;79.86;100675.09;4992468;28;20043;-85
2023/01/08 01:00:16;;;;;;;1.60;1.50;;;;;;;-22.73;80.14;100678.59;4978422;28;20777;-86
2023/01/08 01:02:44;;;;;;;1.70;1.60;;;;;;;-22.51;80.16;100688.88;5004600;28;20077;-87
2023/01/08 01:05:14;;;;;;;1.90;1.80;;;;;;;-22.37;80.05;100697.44;4986925;28;20070;-87
2023/01/08 01:07:42;;;;;;;1.60;1.50;;;;;;;-22.24;80.07;100688.06;4994395;28;20414;-87
2023/01/08 01:10:10;;;;;;;1.90;1.80;;;;;;;-22.10;80.02;100689.78;4994767;28;20112;-87
2023/01/08 01:12:38;;;;;;;1.80;1.70;;;;;;;-22.01;79.93;100691.47;4993995;28;20141;-86
2023/01/08 01:15:07;;;;;;;1.70;1.60;;;;;;;-22.00;79.72;100685.47;4975291;28;20055;-86
2023/01/08 01:17:37;;;;;;;1.70;1.60;;;;;;;-21.91;79.55;100690.63;4992111;28;20097;-87
2023/01/08 01:20:05;;;;;;;1.60;1.50;;;;;;;-21.75;79.54;100682.91;4976254;28;20058;-88
2023/01/08 01:22:33;;;;;;;1.60;1.50;;;;;;;-21.68;79.30;100685.47;4995029;28;20046;-88
2023/01/08 01:25:00;;;;;;;1.70;1.60;;;;;;;-21.53;79.13;100696.56;4992673;28;20061;-88
2023/01/08 01:27:29;;;;;;;1.50;1.40;;;;;;;-21.43;79.13;100700.81;4993303;28;20047;-87
2023/01/08 01:29:56;;;;;;;1.60;1.50;;;;;;;-21.44;78.88;100687.16;4993495;28;20448;-88
2023/01/08 01:32:24;;;;;;;1.60;1.50;;;;;;;-21.38;79.12;100693.13;4993745;28;20505;-87
2023/01/08 01:34:51;;;;;;;1.85;1.75;;;;;;;-21.34;79.09;100682.84;4974532;28;20081;-88
2023/01/08 01:37:18;;;;;;;1.73;1.63;;;;;;;-21.30;79.03;100679.38;4993759;28;20460;-87
2023/01/08 01:39:46;;;;;;;1.67;1.58;;;;;;;-21.17;79.13;100682.75;4976446;28;20054;-88
2023/01/08 01:45:10;;;;;;;1.60;1.50;;;;;;;-21.10;78.82;100688.75;4958366;28;20056;-87
2023/01/08 01:47:39;;;;;;;1.50;1.40;;;;;;;-21.17;78.80;100669.09;4973940;28;20051;-86
2023/01/08 01:50:17;;;;;;;1.60;1.50;;;;;;;-20.99;78.81;100686.97;4974489;28;20046;-87
2023/01/08 01:53:00;;;;;;;1.50;1.40;;;;;;;-20.96;78.79;100678.41;4959301;28;20050;-87
2023/01/08 01:55:29;;;;;;;1.70;1.60;;;;;;;-20.98;78.88;100678.44;4978284;28;20054;-87
2023/01/08 01:58:19;;;;;;;1.58;1.48;;;;;;;-20.96;78.78;100687.00;4962776;28;20047;-86
2023/01/08 02:00:47;;;;;;;1.50;1.40;;;;;;;-20.99;78.78;100679.28;4978079;28;20429;-86
2023/01/08 02:03:15;;;;;;;2.03;1.92;;;;;;;-21.00;78.89;100678.44;4961616;28;20045;-87
2023/01/08 02:06:10;;;;;;;1.60;1.50;;;;;;;-21.01;78.99;100684.44;4994575;28;20054;-87
2023/01/08 02:09:10;;;;;;;1.70;1.60;;;;;;;-21.06;78.77;100681.03;4997214;28;20054;-87
2023/01/08 02:11:45;;;;;;;1.50;1.40;;;;;;;-21.18;79.07;100675.09;5001260;28;20113;-87
2023/01/08 02:14:17;;;;;;;1.65;1.55;;;;;;;-21.16;79.23;100668.22;4948462;28;20050;-87
2023/01/08 02:16:57;;;;;;;1.70;1.60;;;;;;;-21.13;79.30;100665.66;4995487;28;20101;-87
2023/01/08 02:19:33;;;;;;;1.60;1.50;;;;;;;-21.09;79.30;100668.19;4994715;28;20050;-86
2023/01/08 02:22:42;;;;;;;1.50;1.40;;;;;;;-21.08;79.29;100661.38;4980305;28;20535;-87
2023/01/08 02:25:36;;;;;;;1.50;1.40;;;;;;;-21.13;79.04;100665.66;4994815;28;20061;-87
2023/01/08 02:28:07;;;;;;;1.80;1.70;;;;;;;-21.16;79.24;100678.47;4978527;28;20054;-88
2023/01/08 02:30:35;;;;;;;1.50;1.40;;;;;;;-21.15;79.01;100675.91;4982740;28;20235;-87
2023/01/08 02:33:02;;;;;;;1.50;1.40;;;;;;;-21.17;79.25;100671.66;4982123;28;20109;-89
2023/01/08 02:35:37;;;;;;;1.60;1.50;;;;;;;-21.18;79.29;100677.66;4982762;28;20414;-88
2023/01/08 02:38:04;;;;;;;1.67;1.58;;;;;;;-21.18;79.46;100675.94;5002782;28;20074;-87
2023/01/08 02:40:56;;;;;;;1.60;1.50;;;;;;;-21.16;79.39;100674.22;4983374;28;20141;-89
2023/01/08 02:43:31;;;;;;;1.60;1.50;;;;;;;-21.17;79.48;100677.63;4996558;28;20050;-88
2023/01/08 02:46:04;;;;;;;1.58;1.48;;;;;;;-21.22;79.46;100677.63;4981052;28;20053;-90
2023/01/08 02:48:45;;;;;;;1.50;1.40;;;;;;;-21.14;79.73;100677.63;4947780;28;20058;-87
2023/01/08 02:51:20;;;;;;;1.75;1.65;;;;;;;-21.12;79.61;100672.50;4964359;28;20054;-89
2023/01/08 02:53:50;;;;;;;1.55;1.45;;;;;;;-21.15;79.68;100672.50;4996656;28;20054;-88
2023/01/08 02:56:21;;;;;;;1.60;1.50;;;;;;;-21.20;79.82;100664.81;4978090;28;20506;-89
2023/01/08 02:58:49;;;;;;;1.52;1.42;;;;;;;-21.16;79.94;100666.53;4977298;28;20512;-87
2023/01/08 03:01:17;;;;;;;1.58;1.48;;;;;;;-21.16;79.89;100663.09;4947477;28;20057;-89
2023/01/08 03:03:48;;;;;;;1.60;1.50;;;;;;;-21.16;79.93;100661.41;4962243;28;20085;-89
2023/01/08 03:06:17;;;;;;;1.50;1.40;;;;;;;-21.11;80.15;100657.09;4995504;28;20088;-88
2023/01/08 03:08:48;;;;;;;1.50;1.40;;;;;;;-21.12;80.06;100660.50;4977385;28;20057;-88
2023/01/08 03:11:18;;;;;;;1.52;1.42;;;;;;;-21.07;80.14;100661.34;4994926;28;20054;-88
2023/01/08 03:14:08;;;;;;;1.90;1.80;;;;;;;-21.05;80.30;100667.34;4977358;28;20104;-88
2023/01/08 03:16:41;;;;;;;1.55;1.45;;;;;;;-21.11;80.15;100669.06;4961549;28;20500;-90
2023/01/08 03:19:14;;;;;;;1.60;1.50;;;;;;;-21.16;80.01;100679.34;4995407;28;20050;-89
2023/01/08 03:21:42;;;;;;;1.50;1.40;;;;;;;-21.37;80.07;100681.97;4976576;28;20074;-87
2023/01/08 03:24:12;;;;;;;1.70;1.60;;;;;;;-21.47;80.06;100684.56;4993658;28;20050;-87
2023/01/08 03:26:41;;;;;;;1.73;1.63;;;;;;;-21.54;80.07;100677.78;4976941;28;20445;-87
2023/01/08 03:29:11;;;;;;;1.80;1.70;;;;;;;-21.54;80.38;100680.34;4957717;28;20061;-90
2023/01/08 03:31:39;;;;;;;1.60;1.50;;;;;;;-21.62;80.15;100684.59;4946716;28;20050;-88
2023/01/08 03:34:06;;;;;;;1.60;1.50;;;;;;;-21.69;80.06;100682.94;4961924;28;20070;-89
2023/01/08 03:36:34;;;;;;;1.50;1.40;;;;;;;-21.79;80.16;100686.34;4996632;28;20046;-87
2023/01/08 03:39:09;;;;;;;1.60;1.50;;;;;;;-21.85;80.22;100678.66;4977968;28;20250;-89
2023/01/08 03:41:36;;;;;;;1.50;1.40;;;;;;;-21.94;80.20;100679.53;4979351;28;20042;-88
2023/01/08 03:44:03;;;;;;;1.70;1.60;;;;;;;-21.93;80.05;100696.59;4996970;28;20556;-88
2023/01/08 03:46:33;;;;;;;1.50;1.40;;;;;;;-21.95;80.01;100691.44;4996208;28;20050;-87
2023/01/08 03:49:01;;;;;;;1.70;1.60;;;;;;;-22.01;79.79;100690.63;4979073;28;20166;-89
2023/01/08 03:51:28;;;;;;;1.75;1.65;;;;;;;-21.98;79.80;100691.47;4963275;28;20583;-89
2023/01/08 03:53:57;;;;;;;1.50;1.40;;;;;;;-22.00;79.63;100698.28;4978977;28;20064;-88
2023/01/08 03:56:24;;;;;;;1.60;1.50;;;;;;;-22.03;79.53;100693.16;4978723;28;20050;-89
2023/01/08 03:58:51;;;;;;;1.50;1.40;;;;;;;-21.99;79.28;100694.88;4995530;28;20132;-89
2023/01/08 04:01:18;;;;;;;1.60;1.50;;;;;;;-22.01;79.14;100691.47;4995516;28;20082;-89
2023/01/08 04:03:46;;;;;;;1.60;1.50;;;;;;;-21.92;79.24;100694.03;4996166;28;20100;-87
2023/01/08 04:06:13;;;;;;;1.60;1.50;;;;;;;-21.84;79.06;100693.19;4950860;28;20505;-92
2023/01/08 04:08:40;;;;;;;1.77;1.67;;;;;;;-21.79;78.84;100699.16;4952668;28;20409;-88
2023/01/08 04:11:07;;;;;;;1.60;1.50;;;;;;;-21.67;78.86;100696.56;4983649;28;20050;-89
2023/01/08 04:13:34;;;;;;;1.60;1.50;;;;;;;-21.65;78.89;100684.63;4992869;28;20042;-87
2023/01/08 04:16:01;;;;;;;1.52;1.42;;;;;;;-21.72;78.45;100685.47;4962298;28;20047;-88
2023/01/08 04:18:28;;;;;;;1.50;1.40;;;;;;;-21.75;78.36;100685.47;4952457;28;20426;-87
2023/01/08 04:20:55;;;;;;;1.70;1.60;;;;;;;-21.70;78.31;100684.63;4937262;28;20077;-87
2023/01/08 04:23:22;;;;;;;1.70;1.60;;;;;;;-21.65;78.56;100679.50;4969725;28;20062;-87
2023/01/08 04:25:49;;;;;;;1.52;1.42;;;;;;;-21.61;78.52;100693.16;4957521;28;20077;-86
2023/01/08 04:28:16;;;;;;;1.60;1.50;;;;;;;-21.57;78.49;100692.28;4941220;28;20046;-86
2023/01/08 04:30:43;;;;;;;1.60;1.50;;;;;;;-21.52;78.32;100690.56;4967755;28;20047;-88
2023/01/08 04:33:11;;;;;;;1.50;1.40;;;;;;;-21.53;78.25;100679.47;4991004;28;20058;-89
2023/01/08 04:35:38;;;;;;;1.50;1.40;;;;;;;-21.64;77.71;100686.34;4947139;29;20054;-88
2023/01/08 04:38:05;;;;;;;1.60;1.50;;;;;;;-21.78;77.73;100688.91;4963565;29;20111;-89
2023/01/08 04:40:33;;;;;;;1.50;1.40;;;;;;;-21.89;77.79;100691.47;4946394;29;20083;-89
2023/01/08 04:43:00;;;;;;;1.50;1.40;;;;;;;-21.89;77.80;100685.50;4967070;23;20070;-88
2023/01/08 04:45:27;;;;;;;1.75;1.65;;;;;;;-21.91;77.77;100682.06;4946111;29;20392;-89
2023/01/08 04:47:55;;;;;;;1.50;1.40;;;;;;;-21.91;77.57;100685.50;4953787;28;20043;-88
2023/01/08 04:50:22;;;;;;;1.63;1.52;;;;;;;-21.95;77.08;100686.34;4969424;28;20398;-87
2023/01/08 04:52:49;;;;;;;1.75;1.65;;;;;;;-21.93;76.98;100679.50;4951385;28;20046;-87
2023/01/08 04:55:16;;;;;;;1.95;1.85;;;;;;;-21.89;76.88;100675.25;4967940;28;20086;-86
2023/01/08 04:57:44;;;;;;;1.70;1.60;;;;;;;-21.96;76.52;100683.78;4974276;28;20050;-88
2023/01/08 05:00:11;;;;;;;1.60;1.50;;;;;;;-22.11;76.23;100684.63;4973933;28;20058;-88
2023/01/08 05:02:46;;;;;;;1.50;1.40;;;;;;;-22.26;76.38;100684.66;5232782;23;20052;-91
2023/01/08 05:05:14;;;;;;;1.95;1.85;;;;;;;-22.39;76.40;100679.50;4949149;29;20067;-87
2023/01/08 05:07:41;;;;;;;1.70;1.60;;;;;;;-22.48;76.64;100689.72;4922708;28;20054;-85
2023/01/08 05:10:10;;;;;;;1.67;1.58;;;;;;;-22.55;76.83;100688.88;4966654;28;20145;-87
2023/01/08 05:12:37;;;;;;;1.63;1.52;;;;;;;-22.60;76.77;100687.16;4972692;28;20046;-87
2023/01/08 05:15:05;;;;;;;1.63;1.52;;;;;;;-22.68;76.98;100681.16;4956951;28;20133;-88
2023/01/08 05:17:32;;;;;;;1.60;1.50;;;;;;;-22.72;77.14;100697.38;4956762;28;20128;-88
2023/01/08 05:20:00;;;;;;;1.60;1.50;;;;;;;-22.84;77.01;100693.91;4975128;28;20146;-87
2023/01/08 05:22:29;;;;;;;1.80;1.70;;;;;;;-22.80;77.49;100697.34;4969251;28;20077;-86
2023/01/08 05:24:56;;;;;;;1.60;1.50;;;;;;;-22.71;77.23;100694.78;4986795;28;20055;-87
2023/01/08 05:27:28;;;;;;;1.80;1.70;;;;;;;-22.68;77.11;100697.38;4959784;28;20127;-87
2023/01/08 05:29:55;;;;;;;1.60;1.50;;;;;;;-22.65;77.28;100697.38;4973529;28;20058;-87
2023/01/08 05:32:22;;;;;;;1.80;1.70;;;;;;;-22.57;77.33;100695.69;4974466;28;20060;-87
2023/01/08 05:34:49;;;;;;;1.60;1.50;;;;;;;-22.49;76.94;100705.94;4973838;28;20053;-86
2023/01/08 05:37:16;;;;;;;1.70;1.60;;;;;;;-22.54;76.83;100700.81;4973288;28;20047;-87
2023/01/08 05:39:43;;;;;;;1.70;1.60;;;;;;;-22.62;76.93;100699.94;4955427;28;20557;-87
2023/01/08 05:45:15;;;;;;;1.70;1.60;;;;;;;-22.71;76.86;100691.38;5263668;23;20055;-88
2023/01/08 05:53:46;;;;;;;1.77;1.67;;;;;;;-22.73;76.75;100683.72;4932657;29;20051;-86
2023/01/08 05:56:13;;;;;;;1.70;1.60;;;;;;;-22.73;76.77;100677.72;4926887;28;20050;-85
2023/01/08 05:58:41;;;;;;;1.75;1.65;;;;;;;-22.75;76.59;100680.31;4964136;28;20061;-84
2023/01/08 06:01:11;;;;;;;1.60;1.50;;;;;;;-22.81;76.56;100693.94;4616901;28;10000996;-84
2023/01/08 06:03:44;;;;;;;2.00;1.90;;;;;;;-22.90;76.72;100678.53;4966466;28;20447;-85
2023/01/08 06:06:12;;;;;;;1.70;1.60;;;;;;;-22.93;77.10;100678.53;4944357;28;20074;-87
2023/01/08 06:08:39;;;;;;;1.80;1.70;;;;;;;-22.89;76.78;100677.69;4958242;28;20102;-85
2023/01/08 06:11:07;;;;;;;1.70;1.60;;;;;;;-22.88;76.73;100679.41;4957624;28;20059;-85
2023/01/08 06:13:36;;;;;;;1.70;1.60;;;;;;;-22.77;76.79;100682.84;4959242;28;20708;-88
2023/01/08 06:16:04;;;;;;;1.77;1.67;;;;;;;-22.79;76.73;100683.69;4954485;28;20055;-87
2023/01/08 06:18:31;;;;;;;1.73;1.63;;;;;;;-22.80;76.73;100684.56;4939557;28;20491;-86
2023/01/08 06:20:58;;;;;;;1.70;1.60;;;;;;;-22.80;76.74;100685.41;4939135;29;20055;-89
2023/01/08 06:23:45;;;;;;;1.63;1.52;;;;;;;-22.94;76.69;100679.38;4944510;29;20057;-87
2023/01/08 06:26:12;;;;;;;1.90;1.80;;;;;;;-22.78;76.83;100695.66;4955485;29;20148;-88
2023/01/08 06:28:39;;;;;;;1.83;1.73;;;;;;;-22.90;76.51;100678.53;4941138;29;20086;-91
2023/01/08 06:31:06;;;;;;;1.80;1.70;;;;;;;-22.81;76.59;100701.59;4957244;29;20126;-90
2023/01/08 06:33:34;;;;;;;1.85;1.75;;;;;;;-22.79;76.74;100699.03;4942301;29;20051;-89
2023/01/08 06:39:20;;;;;;;1.88;1.77;;;;;;;-22.70;76.79;100699.06;4939600;29;20495;-87
2023/01/08 06:41:47;;;;;;;1.70;1.60;;;;;;;-22.53;76.59;100709.34;4923419;29;20058;-88
2023/01/08 06:44:14;;;;;;;1.80;1.70;;;;;;;-22.39;76.43;100707.69;4927798;28;20047;-88
2023/01/08 06:46:41;;;;;;;1.63;1.52;;;;;;;-22.33;76.11;100700.03;4960550;28;20054;-90
2023/01/08 06:49:10;;;;;;;1.70;1.60;;;;;;;-22.21;76.30;100711.97;4946002;29;20102;-88
2023/01/08 06:51:37;;;;;;;1.63;1.52;;;;;;;-22.14;76.14;100723.06;4938146;29;20143;-86
2023/01/08 06:54:05;;;;;;;1.60;1.50;;;;;;;-22.05;75.92;100712.78;4963070;28;20078;-89
2023/01/08 06:56:48;;;;;;;1.73;1.63;;;;;;;-21.98;75.60;100708.53;4959766;28;20183;-92
2023/01/08 06:59:21;;;;;;;1.70;1.60;;;;;;;-21.91;75.70;100705.97;4947255;28;20078;-91
2023/01/08 07:01:58;;;;;;;1.60;1.50;;;;;;;-21.89;75.59;100700.88;4923000;28;20117;-91
2023/01/08 07:04:39;;;;;;;1.70;1.60;;;;;;;-21.82;75.40;100709.38;4929129;29;20046;-87
2023/01/08 07:07:13;;;;;;;1.60;1.50;;;;;;;-21.61;75.43;100717.09;4901407;29;20130;-88
2023/01/08 07:09:44;;;;;;;1.70;1.60;;;;;;;-21.48;75.11;100712.78;4916256;28;20643;-87
2023/01/08 07:12:12;;;;;;;1.70;1.60;;;;;;;-21.33;74.74;100722.16;4951006;28;20050;-87
2023/01/08 07:14:41;;;;;;;1.80;1.70;;;;;;;-21.23;74.59;100724.69;4950568;28;20157;-88
2023/01/08 07:17:08;;;;;;;1.60;1.50;;;;;;;-21.12;74.22;100724.66;4968490;28;20046;-87
2023/01/08 07:19:35;;;;;;;1.70;1.60;;;;;;;-21.21;73.81;100717.00;4950862;28;20042;-90
2023/01/08 07:22:03;;;;;;;1.88;1.77;;;;;;;-20.99;73.92;100718.59;4950574;28;20062;-88
2023/01/08 07:24:31;;;;;;;1.77;1.67;;;;;;;-20.99;73.32;100707.50;4966636;28;20051;-88
2023/01/08 07:27:03;;;;;;;1.63;1.52;;;;;;;-20.86;73.48;100723.69;4932469;28;20062;-87
2023/01/08 07:29:30;;;;;;;1.70;1.60;;;;;;;-20.72;73.64;100713.41;4948228;28;20043;-89
2023/01/08 07:31:57;;;;;;;1.80;1.70;;;;;;;-20.28;73.05;100727.69;4966944;28;20054;-89
2023/01/08 07:34:25;;;;;;;1.70;1.60;;;;;;;-20.07;72.37;100716.41;4946671;29;20070;-87
2023/01/08 07:36:53;;;;;;;1.60;1.50;;;;;;;-19.79;71.92;100732.50;4971571;28;20042;-87
2023/01/08 07:39:20;;;;;;;1.60;1.50;;;;;;;-19.84;71.28;100737.69;4953339;28;20083;-87
2023/01/08 07:41:47;;;;;;;1.63;1.52;;;;;;;-20.17;71.37;100742.19;4953215;29;20066;-88
2023/01/08 07:44:16;;;;;;;1.63;1.52;;;;;;;-19.88;71.75;100715.41;4937186;29;20158;-91
2023/01/08 07:46:45;;;;;;;1.65;1.55;;;;;;;-19.29;71.09;100738.88;4922520;28;20054;-89
2023/01/08 07:49:12;;;;;;;1.88;1.77;;;;;;;-19.08;70.50;100750.69;4975500;28;20046;-90
2023/01/08 07:51:57;;;;;;;1.75;1.65;;;;;;;-18.75;69.62;100749.47;4956807;28;20046;-91
2023/01/08 07:54:25;;;;;;;1.60;1.50;;;;;;;-18.75;69.12;100728.03;4954785;28;20069;-93
2023/01/08 07:57:19;;;;;;;1.60;1.50;;;;;;;-18.33;67.80;100751.50;4969240;28;20074;-90
2023/01/08 07:59:46;;;;;;;1.60;1.50;;;;;;;-18.26;67.64;100747.97;4962794;28;20130;-87
2023/01/08 08:02:13;;;;;;;1.70;1.60;;;;;;;-18.10;67.16;100740.88;4978800;28;20059;-85
2023/01/08 08:04:41;;;;;;;1.70;1.60;;;;;;;-17.72;67.25;100730.81;4971320;28;20106;-86
2023/01/08 08:07:08;;;;;;;1.65;1.55;;;;;;;-17.82;66.52;100733.56;4971647;28;20074;-84
2023/01/08 08:09:35;;;;;;;1.73;1.63;;;;;;;-17.85;66.37;100728.47;4932205;28;20054;-86
2023/01/08 08:12:02;;;;;;;1.50;1.40;;;;;;;-17.64;65.83;100740.13;4962789;28;20112;-85
2023/01/08 08:14:29;;;;;;;1.83;1.73;;;;;;;-17.22;65.38;100737.72;4947866;28;20162;-86
2023/01/08 08:16:56;;;;;;;1.60;1.50;;;;;;;-17.01;64.88;100739.94;4962343;28;20054;-87
2023/01/08 08:19:23;;;;;;;1.50;1.40;;;;;;;-16.71;65.02;100730.69;4962160;28;20054;-89
2023/01/08 08:21:50;;;;;;;1.83;1.73;;;;;;;-16.34;64.11;100729.94;4970155;28;20054;-87
2023/01/08 08:24:17;;;;;;;1.80;1.70;;;;;;;-16.17;63.20;100717.50;4965414;28;20118;-87
2023/01/08 08:26:44;;;;;;;1.70;1.60;;;;;;;-15.68;62.83;100719.81;4943670;28;20506;-87
2023/01/08 08:29:11;;;;;;;1.50;1.40;;;;;;;-15.45;60.89;100724.44;4946225;28;20063;-87
2023/01/08 08:31:39;;;;;;;1.80;1.70;;;;;;;-15.60;60.91;100720.47;4966599;28;20101;-88
2023/01/08 08:34:08;;;;;;;1.75;1.65;;;;;;;-15.35;60.54;100718.97;4920484;28;20050;-87
2023/01/08 08:36:42;;;;;;;1.60;1.50;;;;;;;-14.91;59.82;100719.56;4903510;29;20069;-87
2023/01/08 08:39:09;;;;;;;1.50;1.40;;;;;;;-15.15;59.36;100721.06;4931495;29;20154;-86
2023/01/08 08:41:36;;;;;;;1.30;1.20;;;;;;;-15.82;59.41;100725.34;4928263;29;20051;-86
2023/01/08 08:44:03;;;;;;;1.70;1.60;;;;;;;-16.73;60.68;100709.22;4930972;29;20150;-86
2023/01/08 08:46:30;;;;;;;1.45;1.35;;;;;;;-16.73;61.92;100718.69;4945102;28;20058;-85
2023/01/08 08:48:57;;;;;;;1.60;1.50;;;;;;;-17.05;62.42;100708.13;4947743;29;20103;-86
2023/01/08 08:51:24;;;;;;;1.38;1.27;;;;;;;-17.26;63.26;100711.97;4942975;28;20058;-86
2023/01/08 08:53:51;;;;;;;1.35;1.25;;;;;;;-17.33;64.22;100706.94;4927838;29;20051;-88
2023/01/08 08:56:18;;;;;;;1.40;1.30;;;;;;;-17.39;64.73;100699.28;4918390;28;20043;-86
2023/01/08 08:58:45;;;;;;;1.83;1.73;;;;;;;-17.54;65.00;100710.75;4957995;28;20142;-86
2023/01/08 09:01:12;;;;;;;1.85;1.75;;;;;;;-17.44;65.04;100701.09;4946663;28;20146;-86
2023/01/08 09:03:39;;;;;;;1.60;1.50;;;;;;;-17.36;64.88;100694.09;4951687;28;20095;-85
2023/01/08 09:06:12;;;;;;;1.50;1.40;;;;;;;-17.47;65.20;100702.00;4971892;28;20057;-87
2023/01/08 09:08:40;;;;;;;1.50;1.40;;;;;;;-17.36;65.79;100700.13;4955204;28;20081;-87
2023/01/08 09:11:07;;;;;;;1.50;1.40;;;;;;;-16.84;65.71;100693.09;4973128;28;20047;-87
2023/01/08 09:13:35;;;;;;;1.70;1.60;;;;;;;-15.74;64.41;100695.81;4956817;28;20047;-87
2023/01/08 09:16:03;;;;;;;1.30;1.20;;;;;;;-15.46;62.87;100705.47;4973160;28;20050;-85
2023/01/08 09:18:30;;;;;;;1.42;1.33;;;;;;;-15.97;62.49;100705.88;4951895;28;20057;-85
2023/01/08 09:20:57;;;;;;;1.40;1.30;;;;;;;-16.58;63.08;100702.03;4963051;28;20055;-86
2023/01/08 09:23:24;;;;;;;1.45;1.35;;;;;;;-16.94;63.99;100718.25;4927019;28;20130;-84
2023/01/08 09:25:59;;;;;;;1.83;1.73;;;;;;;-15.93;63.82;100709.22;4941247;29;20895;-90
2023/01/08 09:28:26;;;;;;;1.95;1.85;;;;;;;-13.85;61.88;100711.22;4906480;29;20086;-88
2023/01/08 09:30:54;;;;;;;1.60;1.50;;;;;;;-13.74;59.83;100710.91;4941794;29;20047;-88
2023/01/08 09:33:23;;;;;;;1.38;1.27;;;;;;;-14.44;59.53;100699.19;4919362;28;20047;-88
2023/01/08 09:35:50;;;;;;;1.60;1.50;;;;;;;-14.95;60.81;100701.53;4945124;28;20055;-87
2023/01/08 09:38:17;;;;;;;1.63;1.52;;;;;;;-15.12;61.34;100684.69;4950401;28;20051;-86
2023/01/08 09:40:51;;;;;;;1.98;1.88;;;;;;;-13.21;60.50;100700.47;4931838;29;20047;-85
2023/01/08 09:43:20;;;;;;;2.00;1.90;;;;;;;-11.41;57.60;100683.22;4949440;29;20047;-87
2023/01/08 09:45:53;;;;;;;1.83;1.73;;;;;;;-10.97;55.79;100686.53;4917802;29;20050;-89
2023/01/08 09:48:25;;;;;;;2.27;2.10;;;;;;;-10.90;55.40;100671.47;4949427;29;20525;-87
2023/01/08 09:50:52;;;;;;;1.60;1.50;;;;;;;-11.37;54.46;100682.16;4941016;29;20047;-87
2023/01/08 09:53:20;;;;;;;2.00;1.90;;;;;;;-12.50;56.39;100679.75;4951959;29;20127;-88
2023/01/08 09:56:11;;;;;;;1.80;1.70;;;;;;;-13.72;58.19;100688.34;4950785;29;20062;-89
2023/01/08 09:58:41;;;;;;;1.60;1.50;;;;;;;-14.34;59.85;100693.72;4903320;29;20070;-87
2023/01/08 10:01:17;;;;;;;1.70;1.60;;;;;;;-14.77;61.70;100680.28;4955053;29;20147;-86
2023/01/08 10:03:44;;;;;;;1.40;1.30;;;;;;;-14.99;62.56;100677.44;4940110;29;20051;-88
2023/01/08 10:06:18;;;;;;;1.42;1.33;;;;;;;-15.21;62.85;100687.56;4922966;29;20656;-89
2023/01/08 10:08:45;;;;;;;1.63;1.52;;;;;;;-15.32;63.55;100687.81;4895773;29;20150;-88
2023/01/08 10:11:15;;;;;;;1.42;1.33;;;;;;;-15.44;63.88;100693.34;4967718;29;20046;-89
2023/01/08 10:13:57;;;;;;;1.30;1.23;;;;;;;-15.73;64.56;100661.28;4934774;29;20039;-86
2023/01/08 10:16:35;;;;;;;1.40;1.30;;;;;;;-15.67;64.70;100685.28;4948672;29;20071;-88
2023/01/08 10:19:17;;;;;;;1.50;1.40;;;;;;;-15.71;65.20;100694.88;4935044;29;20051;-86
2023/01/08 10:22:12;;;;;;;1.25;1.23;;;;;;;-15.85;65.50;100665.91;4937298;29;20059;-85
2023/01/08 10:24:39;;;;;;;1.45;1.35;;;;;;;-15.59;65.79;100688.53;4940864;29;20059;-87
2023/01/08 10:27:15;;;;;;;1.60;1.50;;;;;;;-15.46;65.77;100689.94;4952201;29;20047;-87
2023/01/08 10:29:44;;;;;;;1.52;1.42;;;;;;;-15.48;65.87;100693.44;4934539;29;20059;-88
2023/01/08 10:32:33;;;;;;;1.58;1.48;;;;;;;-15.61;66.08;100674.78;4945546;29;20049;-87
2023/01/08 10:35:06;;;;;;;1.70;1.60;;;;;;;-15.65;66.29;100676.59;4928417;29;20056;-89
2023/01/08 10:37:41;;;;;;;1.80;1.70;;;;;;;-15.64;66.72;100690.41;4939152;29;20486;-88
2023/01/08 10:40:31;;;;;;;1.50;1.40;;;;;;;-15.71;67.01;100683.69;4937864;29;20070;-86
2023/01/08 10:43:08;;;;;;;1.58;1.48;;;;;;;-15.79;67.13;100670.94;4957395;29;20100;-85
2023/01/08 10:45:35;;;;;;;1.63;1.52;;;;;;;-15.76;67.26;100678.63;4926966;29;20475;-87
2023/01/08 10:48:04;;;;;;;1.38;1.27;;;;;;;-15.95;67.42;100666.16;4931279;29;20078;-91
2023/01/08 10:50:33;;;;;;;1.52;1.42;;;;;;;-16.01;67.79;100686.13;4943221;29;20417;-84
2023/01/08 10:53:08;;;;;;;1.70;1.60;;;;;;;-15.49;67.78;100674.47;4960414;29;20167;-84
2023/01/08 10:55:36;;;;;;;1.90;1.80;;;;;;;-14.26;66.07;100677.03;4910888;29;20047;-86
2023/01/08 10:58:08;;;;;;;2.03;1.92;;;;;;;-14.01;64.81;100690.09;4931712;29;20051;-86
2023/01/08 11:00:36;;;;;;;1.80;1.70;;;;;;;-13.93;64.68;100691.59;4940648;29;20051;-86
2023/01/08 11:03:06;;;;;;;1.55;1.45;;;;;;;-14.25;64.32;100683.94;4922728;29;20059;-85
2023/01/08 11:05:41;;;;;;;1.42;1.33;;;;;;;-14.66;64.97;100672.19;4921011;29;20047;-84
2023/01/08 11:08:16;;;;;;;1.35;1.25;;;;;;;-15.07;65.81;100697.53;4890635;29;20053;-85
2023/01/08 11:10:54;;;;;;;1.42;1.33;;;;;;;-15.19;66.62;100697.84;4921664;29;20521;-88
2023/01/08 11:13:30;;;;;;;1.48;1.38;;;;;;;-15.35;66.80;100685.31;4908150;29;20036;-91
2023/01/08 11:16:16;;;;;;;1.35;1.25;;;;;;;-15.56;67.04;100693.63;5058097;23;20419;-88
2023/01/08 11:18:49;;;;;;;1.58;1.48;;;;;;;-14.97;66.89;100704.16;4971529;28;20066;-87
2023/01/08 11:21:23;;;;;;;1.75;1.65;;;;;;;-14.55;66.19;100703.88;4945299;28;20529;-85
2023/01/08 11:24:03;;;;;;;1.50;1.40;;;;;;;-14.58;65.89;100692.72;4977721;28;20054;-85
2023/01/08 11:26:31;;;;;;;2.03;1.92;;;;;;;-13.60;64.83;100695.72;4971709;28;20050;-88
2023/01/08 11:29:00;;;;;;;2.13;2.00;;;;;;;-11.85;62.75;100707.56;4958916;29;20047;-90
2023/01/08 11:31:39;;;;;;;1.40;1.30;;;;;;;-12.60;60.83;100696.59;4958297;29;20701;-87
2023/01/08 11:34:37;;;;;;;1.50;1.40;;;;;;;-13.76;62.26;100692.78;4961856;29;20110;-87
2023/01/08 11:37:31;;;;;;;1.63;1.52;;;;;;;-14.49;63.67;100695.03;4963284;28;20078;-86
2023/01/08 11:39:58;;;;;;;1.50;1.40;;;;;;;-14.91;64.91;100697.97;4956837;29;20047;-86
2023/01/08 11:42:25;;;;;;;1.60;1.50;;;;;;;-15.26;66.03;100701.50;4958520;28;20070;-87
2023/01/08 11:45:17;;;;;;;1.65;1.55;;;;;;;-15.65;66.86;100694.69;4970626;28;20039;-87
2023/01/08 11:47:55;;;;;;;1.50;1.40;;;;;;;-16.06;67.86;100688.81;4975290;28;20445;-88